Timeline UpdatesTrip UpdatesNews PostsPvt PostsTravel TipsAdmin PostsConv PostsFollowed PostsChat RequestsBlog PostsPNR Posts

Disclaimer
Search
 
 
Wed Jul 30, 2014 04:25:09 ISTHomeTrainsΣChainsAtlasPNRForumGalleryNewsFAQTripsMembersLoginFeedback
No Recent News for this Train
Other Trains in the News **new
Latest...
.
Wed Feb 26, 2014 (06:54PM)
⇐ Return Journey: Train# 15018

15017/Kashi Express

Jul 24 (8:42PM)
Change Departure Station:
Change Arrival Station:
Post a Train Travel TipPost a Train Travel Tip **new
Post a Comment/Question/Picture/VideoPost a Comment/Question/Picture/Video
Pantry/Catering
✕ NO Pantry Car
✓ Catering Avbl
Loco/Rake Reversals
ALD/Allahabad Junction (10);
RSA - Rake Sharing
No RSA.
Rake/Coach Composition
Loco-GEN-GEN-GEN-S1-S2-S3-S4-S5-S6-S7-S8-S9-S10-S11-S12-A1-B1-GEN-GEN-SLR; As per Shubham in # 127749.
Loco
LTT-ET :-BSL/ET WAP-4 / WAM-4 ET-GKP :-ET WDM-3A/3D.
News    PNR    Forum    Time-Table    Availability    Fare Chart    Map    Arr/Dep History    Trips    Gallery    ΣChains    X/O    Timeline    
Travel Time: 36h 35m    70 halts    Distance: 1709 km    Avg Speed: 46 km/hr
Type: Mail/Express
Zone: NER/North Eastern
Departs @ 06:35 (Avg 2m late)
Platform# 3
SMTWTFS
Mumbai Lokmanya Tilak Terminus/LTT 
Arrives @ 19:10 +1 night (Avg 20m late)
Platform# 6
SMTWTFS
Gorakhpur Junction/GKP 

70 halts. 230 intermediate Stations between Mumbai Lokmanya Tilak Terminus and Gorakhpur Junction

Show ALL intermediate Stations  Show Old Time-Table

#CodeStation NameX/OArrivesAvgDepartsAvgHaltPFDay#KmSpeedElevZoneAddress
1LTT»Mumbai Lokmanya Tilak Terminus (5)»  -06:35+2310.0417mCRMumbai, Maharashtra
2TNAThane (10)X  06:59+407:00+41m7116.56710mCRThane, Maharashtra
3KYNKalyan Junction (8)  07:18+1407:22+164m4136.76110mCRKalyan 421301, Maharashtra
4KSRAKasara (4)X  08:28+1708:30+222m11104.125290mCRDist. Thane 421602, Maharashtra
5IGPIgatpuri (4)X09:05+1309:10+195m21118.571589mCRIgatpuri 422403, Maharashtra
6DVLDevlali (3)X  09:48+2109:50+232m11163.434561mCRDist. Nashik 422401, Maharashtra
7NKNasik Road (3)  10:00+2110:05+205m21169.176563mCRNashik 422101, Maharashtra
8LSLasalgaon (3)  10:43+1710:45+172m--1217.474592mCRLasalgaon, Maharashtra
9MMRManmad Junction (6)X  11:05+2111:10+225m21241.985580mCRManmad 423104, Maharashtra
10NGNNandgaon (3)  11:28+2511:30+252m--1267.390476mCRNandgaon, Maharashtra
11CSNChalisgaon Junction (3)  11:58+3112:00+322m--1309.596352mCRChalisgaon 424101, Maharashtra
12PCPachora Junction (4)  12:28+3812:30+392m--1354.389264mCRPachora 424201, Maharashtra
13JLJalgaon Junction (4)  13:02+4713:05+453m31402.041213mCRJalgaon 425001, Maharashtra
14BSLBhusaval Junction (8)X  13:40+3813:50+4210m--1426.169208mCRBhusaval 425201, Maharashtra
15RVRaver (2)  14:20+4414:22+462m--1460.476242mCRJalgaon, Maharashtra
16BAUBurhanpur (2)X  14:38+4814:40+482m21480.687269mCRBurhanpur, Madhya Pradesh
17NPNRNepanagar (2)  14:58+5415:00+552m--1506.826289mCRState Highway 27, Madhya Pradesh
18KNWKhandwa Junction (5)XO  16:40+216:45+35m11549.573310mCRKhandwa, Madhya Pradesh
19TLVTalvadiya (2)XO  16:58+1117:00+112m--1565.271308mWCRKhandwa, Madhya Pradesh
20SGBJSurgaon Banjari (2)XO  17:10+1117:12+132m--1577.077298mWCRKhandwa, Madhya Pradesh
21CAERChhanera (2)O  17:26+1717:28+262m--1594.961283mWCRChhanera, Madhya Pradesh
22BRUDBarud (2)  17:38+2717:40+342m--1605.095273mWCRKhandwa, Madhya Pradesh
23KKNKhirkiya (2)  17:53+4017:55+1:022m21625.6105281mWCRSH 15, Madhya Pradesh
24HDHarda (3)XO  18:13+1:0918:15+1:102m--1657.156289mWCRHarda, Madhya Pradesh
25TBNTimarni (2)X  18:30+1:1018:32+1:182m--1671.250308mWCRTimarni, Madhya Pradesh
26BPFBanapura (2)XO  19:06+1:0619:08+1:112m--1699.416314mWCRBanapura, Madhya Pradesh
27ETItarsi Junction (7)X21:10+121:20+1310m11732.974329mWCRItarsi 461111, Madhya Pradesh
28SGPSohagpur (2)X  22:00+3022:02+302m--1782.476340mWCRSohagpur, Madhya Pradesh
29PPIPipariya (3)  22:16+3322:18+332m11800.199338mWCRPiparia, Madhya Pradesh
30GARGadarwara (2)X  22:48+4322:50+432m11849.568352mWCRNarsinghpur, Madhya Pradesh
31KYKareli (2)  23:15+4023:17+402m11878.086361mWCRKareli, Madhya Pradesh
32NUNarsinghpur (2)  23:28+4423:30+442m11893.860365mWCRNarsimhapur, Madhya Pradesh
33SRIDShridham (3)XO  00:01+3800:03+382m22925.076373mWCRShridham, Madhya Pradesh
34MMLMadan Mahal (3)  00:42+3700:44+372m22974.618428mWCRJabalpur, Madhya Pradesh
35JBPJabalpur Junction (4)X  00:55+2901:05+3510m32977.975416mWCRJabalpur, Madhya Pradesh
36SHRSihora Road (2)X  01:36+3701:38+372m--21016.575388mWCRJabalpur, Madhya Pradesh
37KTEKatni Junction (6)XO  02:20+3802:25+385m--21068.767387mWCRKatni, Madhya Pradesh
38MYRMaihar (3)X  03:21+2903:23+292m121131.766353mWCRMaihar Railway Station, Madhya Pradesh
39STASatna Junction (3)X  03:55+2504:05+2510m--21167.171322mWCRSatna, Madhya Pradesh
40JTWJaitwar (2)X  04:22+2704:24+282m--21187.240321mWCRJaitwar, Madhya Pradesh
41MKPManikpur Junction (4)X  05:50+605:55+95m221244.875250mNCRManikpur, Uttar Pradesh
42DBRDabhaura (2)X  06:13+1206:15+132m--21267.372201mNCRDabhaura, Uttar Pradesh
43SRJShankargarh (3)  06:42+1606:44+182m221299.866132mNCRShankargarh, Uttar Pradesh
44JSRJasra (2)X  07:04+1907:06+192m--21321.62497mNCRJasra, Uttar Pradesh
45NYNNaini Junction (4)X  07:45+1707:47+232m421337.21998mNCRAllahabad, Uttar Pradesh
46ALDAllahabad Junction (10)O08:10+2508:30+2920m921344.322100mNCRAllahabad 211003, Uttar Pradesh
47PRGPrayag Junction (3)XO  08:47+3908:49+442m--21350.61596mNRAllahabad, Uttar Pradesh
48PFMPhaphamau Junction (3)XO  09:14+3209:15+321m--21357.05699mNRAllahabad, Uttar Pradesh
49SYCSarai ChandiO  09:29+3809:30+381m--21370.15395mNR221507, Uttar Pradesh
50PLPPhulpur (3)O  09:42+4009:43+401m121380.66993mNRDistrict - Allahabad 212402, Uttar Pradesh
51URPRUgrasenpur (2)  09:52+4109:53+411m121391.05096mNRJanghai, Uttar Pradesh
52JNHJanghai Junction (3)O  10:08+4510:10+492m121403.63092mNRUttar Pradesh 212401, Uttar Pradesh
53SQNSarai Kansrai (2)XO  10:20+5010:21+531m--21408.63892mNRGopalaha Marg, Uttar Pradesh
54SAWSuriawan (2)O  10:37+5110:38+511m--21418.74890mNR221404, Uttar Pradesh
55MOFMondh (2)  10:47+5510:48+551m121425.94491mNRUttar Pradesh 221406, Uttar Pradesh
56BOYBhadohi (2)O  10:59+5611:01+582m--21434.03890mNRUttar Pradesh 221401, Uttar Pradesh
57PRFParsipur (2)O  11:14+5811:15+581m--21442.35687mNRSant Ravidas Nagar, Uttar Pradesh
58KEHKapseti (2)O  11:24+1:0011:25+1:011m--21450.73585mNRState Highway 87, Uttar Pradesh
59SWPRSewapuri (2)X  11:34+1:0211:35+1:021m121456.02187mNRState Highway 87, Uttar Pradesh
60BSBVaranasi Junction (9)X  12:40+2913:00+2620m521478.52482mNRVaranasi 221002, Uttar Pradesh
61BCYVaranasi City (3)  13:08+4813:10+512m--21481.85877mNERVaranasi, Uttar Pradesh
62ARJAunrihar Junction (4)  13:43+1:1013:45+1:102m--21513.67180mNERGhazipur, Uttar Pradesh
63JKNJakhanianX  14:09+1:1514:11+1:162m--21542.13082mNERState Highway 67, Uttar Pradesh
64DLRDullahapur  14:28+1:0914:30+1:092m--21550.63679mNERDullahapur, Uttar Pradesh
65MAUMau Junction (4)  15:05+5315:10+555m221571.63175mNERMau., Uttar Pradesh
66IAAIndara Junction (3)X  15:25+5815:27+592m--21579.44574mNERMau, Uttar Pradesh
67BLTRBelthara Road (2)  16:03+5016:05+512m--21606.59870mNERBelthara, Uttar Pradesh
68LRDLar Road (2)  16:13+1:0216:15+1:032m--21619.61874mNERDeoria, Uttar Pradesh
69SRUSalempur Junction (2)X  16:46+4216:48+432m--21629.12871mNERSalempur, Uttar Pradesh
70BTTBhatni Junction (5)X  17:10+3217:15+345m--21639.36973mNERDeoria, Uttar Pradesh
71DEOSDeoria Sadar (3)  17:33+3917:35+432m--21660.13179mNERDeoria- 274001, Uttar Pradesh
72GKP•Gorakhpur Junction (10)•  19:10+20-621709.2-84mNERGorakhpur 273001, Uttar Pradesh
Scroll to Top
Scroll to Bottom